Hamilton, KS

3:15 PM CDT on August 26, 2016 (GMT -0500)
NonFedAWOS | | Change Station

Elev 1208 ft 37.85 °N, 96.29 °W | Updated 36 minutes ago

Mostly Cloudy
Mostly Cloudy
84 °F
Feels Like 88 °F
N
7
Wind Variable Wind from South
Gusts 0.0 mph

Today
High -- | Low -- °F
--% Chance of Precip.
Yesterday
High -- | Low -- °F
Precip. -- in
Pressure 30.01 in
Visibility 10.0 miles
Clouds Scattered Clouds 4100 ft
Mostly Cloudy 4800 ft
Mostly Cloudy 7500 ft
Heat Index 88 °F
Dew Point 70 °F
Humidity 62%
Rainfall in
Snow Depth Not available.
6:49 AM 8:02 PM
Waning Crescent, 31% visible
METAR KEMP 261953Z AUTO 17014KT 10SM SCT041 BKN048 BKN075 29/19 A3004 RMK AO2 SLP160 T02890194
Pressure 30.01 in
Visibility 10.0 miles
Clouds Scattered Clouds 4100 ft
Mostly Cloudy 4800 ft
Mostly Cloudy 7500 ft
Heat Index 88 °F
Dew Point 70 °F
Humidity 62%
Rainfall in
Snow Depth Not available.
6:49 AM 8:02 PM
Waning Crescent, 31% visible
METAR KEMP 261953Z AUTO 17014KT 10SM SCT041 BKN048 BKN075 29/19 A3004 RMK AO2 SLP160 T02890194

10-Day Weather Forecast

Almanac

Astronomy

Aug. 26, 2016 Rise Set
Actual Time
Civil Twilight
Nautical Twilight
Astronomical Twilight
Moon
Length of Visible Light
Length of Day
Tomorrow will be .
, % of the Moon is Illuminated

Today's Extremes

State Highs State Lows

Community

WunderPhotos

Upload Photos

1,935,192 photos uploaded!

WunderBlog® & News

Nearby

Air Quality

  Air Quality AQ Index Pollutant
Not available.

Snow Depth

Station Depth Elevation

Earthquake Activity

City Distance Mag. Time & Date
Minimum magnitude displayed is 2.5.

Coastal Water Temperatures

Place Temperature

Stations

Nearby Weather Stations

Station Location Temp. Windchill Dew Point Humidity Wind Precip. Elev Updated Type
                   

Watches & Warnings

There are currently no watches in effect.